Flight Track Log - Related Links

Times and Time Zones

All times are in EDT time to prevent confusion due to time zone crossing. See the VNR160 flight status page for this flight to view local times or setup timezone preferences in your user account.

Time Position Orientation Groundspeed Altitude Reporting Facility
EDT Latitude Longitude Course Direction KTS MPH feet Rate Location/Type
Thu 04:33:00 PM 30.4460 -93.8498 62° Northeast  Level Estimated
Thu 04:34:00 PM 30.4910 -93.7486 63° Northeast  Level Estimated
Thu 04:35:00 PM 30.5359 -93.6472 63° Northeast  Level Estimated
Thu 04:36:00 PM 30.5808 -93.5458 63° Northeast  Level Estimated
Thu 04:37:00 PM 30.6256 -93.4442 63° Northeast  Level Estimated
Thu 04:38:00 PM 30.6703 -93.3426 63° Northeast  Level Estimated
Thu 04:39:00 PM 30.7150 -93.2409 63° Northeast  Level Estimated
Thu 04:40:00 PM 30.7595 -93.1391 63° Northeast  Level Estimated
Thu 04:41:00 PM 30.8040 -93.0371 63° Northeast  Level Estimated
Thu 04:42:00 PM 30.8484 -92.9351 63° Northeast  Level Estimated
Thu 04:43:00 PM 30.8930 -92.8324 63° Northeast  Level Estimated
Thu 04:44:00 PM 30.9375 -92.7295 63° Northeast  Level Estimated
Thu 04:45:00 PM 30.9820 -92.6265 63° Northeast  Level Estimated
Thu 04:46:00 PM 31.0264 -92.5233 63° Northeast  Level Estimated
Thu 04:47:00 PM 31.0707 -92.4201 63° Northeast  Level Estimated
Thu 04:48:00 PM 31.1150 -92.3168 63° Northeast  Level Estimated
Thu 04:49:00 PM 31.1591 -92.2133 63° Northeast  Level Estimated
Thu 04:50:00 PM 31.2032 -92.1098 64° Northeast  Level Estimated
Thu 04:51:00 PM 31.2472 -92.0062 64° Northeast  Level Estimated
Thu 04:52:00 PM 31.2911 -91.9025 64° Northeast  Level Estimated
Thu 04:53:00 PM 31.3349 -91.7987 64° Northeast  Level Estimated
Thu 04:54:00 PM 31.3786 -91.6948 64° Northeast  Level Estimated
Thu 04:55:00 PM 31.4223 -91.5908 64° Northeast  Level Estimated
Thu 04:56:00 PM 31.4658 -91.4867 64° Northeast  Level Estimated
Thu 04:57:00 PM 31.5093 -91.3825 64° Northeast  Level Estimated
Thu 04:58:00 PM 31.5528 -91.2780 64° Northeast  Level Estimated
Thu 04:59:00 PM 31.5961 -91.1735 64° Northeast  Level Estimated
Thu 05:00:00 PM 31.6394 -91.0688 64° Northeast  Level Estimated
Thu 05:01:00 PM 31.6826 -90.9641 64° Northeast  Level Estimated
Thu 05:02:00 PM 31.7258 -90.8593 64° Northeast  Level Estimated
Thu 05:03:00 PM 31.7688 -90.7543 64° Northeast  Level Estimated
Thu 05:04:00 PM 31.8118 -90.6493 64° Northeast  Level Estimated
Thu 05:05:00 PM 31.8546 -90.5441 64° Northeast  Level Estimated
Thu 05:06:00 PM 31.8974 -90.4389 64° Northeast  Level Estimated
Thu 05:07:00 PM 31.9401 -90.3336 64° Northeast  Level Estimated
Thu 05:08:00 PM 31.9827 -90.2281 65° Northeast  Level Estimated
Thu 05:09:00 PM 32.0252 -90.1226 65° Northeast  Level Estimated
Thu 05:10:00 PM 32.0676 -90.0170 65° Northeast  Level Estimated
Thu 05:11:00 PM 32.1100 -89.9113 65° Northeast  Level Estimated
Thu 05:12:00 PM 32.1522 -89.8055 65° Northeast  Level Estimated
Thu 05:13:00 PM 32.1944 -89.6995 65° Northeast  Level Estimated
Thu 05:14:00 PM 32.2365 -89.5935 65° Northeast  Level Estimated
Thu 05:15:00 PM 32.2785 -89.4874 65° Northeast  Level Estimated
Thu 05:16:00 PM 32.3204 -89.3812 65° Northeast  Level Estimated
Thu 05:17:00 PM 32.3622 -89.2749 65° Northeast  Level Estimated
Thu 05:18:00 PM 32.4039 -89.1685 65° Northeast  Level Estimated
Thu 05:19:00 PM 32.4455 -89.0621 65° Northeast  Level Estimated
Thu 05:20:00 PM 32.4870 -88.9556 65° Northeast  Level Estimated
Thu 05:21:00 PM 32.5284 -88.8490 65° Northeast  Level Estimated
Thu 05:22:00 PM 32.5697 -88.7423 65° Northeast  Level Estimated
Thu 05:23:00 PM 32.6109 -88.6355 65° Northeast  Level Estimated
Thu 05:24:00 PM 32.6521 -88.5286 65° Northeast  Level Estimated
Thu 05:25:00 PM 32.6931 -88.4216 65° Northeast  Level Estimated
Thu 05:26:00 PM 32.7341 -88.3145 66° East  Level Estimated
Thu 05:27:00 PM 32.7750 -88.2073 66° East  Level Estimated
Thu 05:28:00 PM 32.8157 -88.1001 66° East  Level Estimated
Thu 05:29:00 PM 32.8564 -87.9927 66° East  Level Estimated
Thu 05:30:00 PM 32.8970 -87.8852 66° East  Level Estimated
Thu 05:31:00 PM 32.9375 -87.7776 66° East  Level Estimated
Thu 05:32:00 PM 32.9779 -87.6699 66° East  Level Estimated
Thu 05:33:00 PM 33.0182 -87.5622 66° East  Level Estimated
Thu 05:34:00 PM 33.0584 -87.4543 66° East  Level Estimated
Thu 05:35:00 PM 33.0986 -87.3463 66° East  Level Estimated
Thu 05:36:00 PM 33.1386 -87.2383 66° East  Level Estimated
Thu 05:37:00 PM 33.1785 -87.1301 66° East  Level Estimated
Thu 05:38:00 PM 33.2184 -87.0219 66° East  Level Estimated
Thu 05:39:00 PM 33.2581 -86.9135 66° East  Level Estimated
Thu 05:40:00 PM 33.2978 -86.8051 66° East  Level Estimated
Thu 05:41:00 PM 33.3373 -86.6966 66° East  Level Estimated
Thu 05:42:00 PM 33.3768 -86.5879 66° East  Level Estimated
Thu 05:43:00 PM 33.4162 -86.4792 67° East  Level Estimated
Thu 05:44:00 PM 33.4554 -86.3704 67° East  Level Estimated
Thu 05:45:00 PM 33.4946 -86.2614 67° East  Level Estimated
Thu 05:46:00 PM 33.5337 -86.1524 67° East  Level Estimated
Thu 05:47:00 PM 33.5727 -86.0433 67° East  Level Estimated
Thu 05:48:00 PM 33.6116 -85.9341 67° East  Level Estimated
Thu 05:49:00 PM 33.6504 -85.8247 67° East  Level Estimated
Thu 05:50:00 PM 33.6891 -85.7153 67° East  Level Estimated
Thu 05:51:00 PM 33.7277 -85.6058 67° East  Level Estimated
Thu 05:52:00 PM 33.7662 -85.4962 67° East  Level Estimated
Thu 05:53:00 PM 33.8046 -85.3865 67° East  Level Estimated
Thu 05:54:00 PM 33.8429 -85.2766 67° East  Level Estimated
Thu 05:55:00 PM 33.8811 -85.1667 67° East  Level Estimated
Thu 05:56:00 PM 33.9189 -85.0576 67° East  Level Estimated
Thu 05:57:00 PM 33.9566 -84.9483 67° East  Level Estimated
Thu 05:58:00 PM 33.9943 -84.8389 67° East  Level Estimated
Thu 05:59:00 PM 34.0318 -84.7295 67° East  Level Estimated
Thu 06:00:00 PM 34.0692 -84.6199 68° East  Level Estimated
Thu 06:01:00 PM 34.1066 -84.5102 68° East  Level Estimated
Thu 06:02:00 PM 34.1438 -84.4005 68° East  Level Estimated
Thu 06:03:00 PM 34.1810 -84.2906 68° East  Level Estimated
Thu 06:04:00 PM 34.2180 -84.1807 68° East  Level Estimated
Thu 06:05:00 PM 34.2550 -84.0707 68° East  Level Estimated
Thu 06:06:00 PM 34.2918 -83.9605 68° East  Level Estimated
Thu 06:07:00 PM 34.3290 -83.8491 68° East  Level Estimated
Thu 06:08:00 PM 34.3660 -83.7375 68° East  Level Estimated
Thu 06:09:00 PM 34.4030 -83.6259 68° East  Level Estimated
Thu 06:10:00 PM 34.4397 -83.5147 68° East  Level Estimated
Thu 06:11:00 PM 34.4762 -83.4034 68° East  Level Estimated
Thu 06:12:00 PM 34.5127 -83.2920 68° East  Level Estimated
Thu 06:13:00 PM 34.5491 -83.1805 68° East  Level Estimated
Thu 06:14:00 PM 34.5854 -83.0688 68° East  Level Estimated
Thu 06:15:00 PM 34.6215 -82.9571 68° East  Level Estimated
Thu 06:16:00 PM 34.6576 -82.8453 69° East  Level Estimated
Thu 06:17:00 PM 34.6936 -82.7334 69° East  Level Estimated
Thu 06:18:00 PM 34.7294 -82.6215 69° East  Level Estimated
Thu 06:19:00 PM 34.7652 -82.5094 69° East  Level Estimated
Thu 06:20:00 PM 34.8008 -82.3972 69° East  Level Estimated
Thu 06:21:00 PM 34.8364 -82.2849 69° East  Level Estimated
Thu 06:22:00 PM 34.8719 -82.1725 69° East  Level Estimated
Thu 06:23:00 PM 34.9073 -82.0596 69° East  Level Estimated
Thu 06:24:00 PM 34.9427 -81.9467 69° East  Level Estimated
Thu 06:25:00 PM 34.9780 -81.8336 69° East  Level Estimated
Thu 06:26:00 PM 35.0129 -81.7211 69° East  Level Estimated
Thu 06:27:00 PM 35.0480 -81.6077 69° East  Level Estimated
Thu 06:28:00 PM 35.0830 -81.4942 69° East  Level Estimated
Thu 06:29:00 PM 35.1179 -81.3807 69° East  Level Estimated
Thu 06:30:00 PM 35.1525 -81.2675 69° East  Level Estimated
Thu 06:31:00 PM 35.1870 -81.1542 70° East  Level Estimated
Thu 06:32:00 PM 35.2214 -81.0409 70° East  Level Estimated
Thu 06:33:00 PM 35.2559 -80.9269 70° East  Level Estimated
Thu 06:34:00 PM 35.2902 -80.8128 70° East  Level Estimated
Thu 06:35:00 PM 35.3244 -80.6988 70° East  Level Estimated
Thu 06:36:00 PM 35.3587 -80.5842 70° East  Level Estimated
Thu 06:37:00 PM 35.3928 -80.4694 70° East  Level Estimated
Thu 06:37:47 PM 34.9069 -79.9278 70° East 368 423 16,800  Level Washington Center
Thu 06:38:00 PM 35.4268 -80.3546 70° East  Level Estimated
Thu 06:38:47 PM 34.9894 -79.8383 42° Northeast 359 413 15,600  Level Washington Center
Thu 06:39:00 PM 35.4608 -80.2397 70° East  Level Estimated
Thu 06:39:47 PM 35.0544 -79.7683 41° Northeast 353 406 14,600  Level Washington Center
Thu 06:40:00 PM 35.4946 -80.1246 70° East  Level Estimated
Thu 06:40:47 PM 35.1303 -79.6858 42° Northeast 340 391 13,400  Level Washington Center
Thu 06:41:00 PM 35.5283 -80.0095 70° East  Level Estimated
Thu 06:41:47 PM 35.1889 -79.6178 43° Northeast 320 368 12,400  Level Washington Center
Thu 06:42:00 PM 35.5619 -79.8943 70° East  Level Estimated
Thu 06:42:47 PM 35.2706 -79.5506 34° Northeast 320 368 11,200  Level Washington Center
Thu 06:43:00 PM 35.5958 -79.7774 70° East  Level Estimated
Thu 06:43:47 PM 35.3431 -79.5031 28° Northeast 320 368 10,200  Level Washington Center
Thu 06:44:47 PM 35.4283 -79.4436 30° Northeast 320 368 9,000 -600 Descending Washington Center
Thu 06:45:47 PM 35.4947 -79.3933 32° Northeast 314 361 9,000  Level Washington Center
Thu 06:46:47 PM 35.5558 -79.3067 49° Northeast 300 345 9,000  Level Washington Center
Thu 06:47:47 PM 35.6022 -79.2297 53° Northeast 313 360 9,000  Level Washington Center
Thu 06:48:47 PM 35.6592 -79.1353 53° Northeast 313 360 9,000  Level Washington Center
Thu 06:50:00 PM 35.7222 -79.0056 58° Northeast  Level FlightAware Approximate
Thu 06:57:00 PM 35.8667 -78.7833 North  Level FlightAware Approximate
Thu 06:58:00 PM 35.8776 -78.7875 North  Level Estimated
Thu 06:59:00 PM 35.8776 -78.7875 North  Level Estimated
Thu 07:00:00 PM 35.8776 -78.7875 North  Level Estimated
Thu 07:01:00 PM 35.8776 -78.7875 North  Level Estimated
Thu 07:02:00 PM 35.8776 -78.7875 North  Level Estimated
Thu 07:03:00 PM 35.8776 -78.7875 North  Level Estimated
Thu 07:04:00 PM 35.8776 -78.7875 North  Level Estimated
Thu 07:05:00 PM 35.8776 -78.7875 North  Level Estimated
Thu 07:06:00 PM 35.8776 -78.7875 North  Level Estimated
Thu 07:07:00 PM 35.8776 -78.7875 North  Level Estimated
Thu 07:08:00 PM 35.8776 -78.7875 North  Level Estimated

Login

Don't have an account? Register now (free) for customized features, flight alerts, and more!